METAR UND TAF INFORMATION
METAR FOR GCLP
ADDS - METARS form results

(2323 UTC 19 August 2019)
Data provider http://aviationweather.gov/metar/data/
 
METAR text: GCLP 192300Z 01022KT 9999 FEW020 23/19 Q1018 NOSIG
Conditions at: GCLP (LAS PALMAS/GANDO, ES) observed 2300 UTC 19 August 2019
Temperature: 23.0°C (73°F)
Dewpoint: 19.0°C (66°F) [RH = 78%]
Pressure (altimeter): 30.06 inches Hg (1018.0 mb)
Winds: from the N (10 degrees) at 25 MPH (22 knots; 11.3 m/s)
Visibility: 6 or more miles (10+ km)
Ceiling: at least 12,000 feet AGL
Clouds: few clouds at 2000 feet AGL
Weather: no significant weather observed at this time

METAR text: GCLP 192230Z 01023KT 9999 FEW020 22/19 Q1017 NOSIG
Conditions at: GCLP (LAS PALMAS/GANDO, ES) observed 2230 UTC 19 August 2019
Temperature: 22.0°C (72°F)
Dewpoint: 19.0°C (66°F) [RH = 83%]
Pressure (altimeter): 30.03 inches Hg (1017.0 mb)
Winds: from the N (10 degrees) at 26 MPH (23 knots; 11.8 m/s)
Visibility: 6 or more miles (10+ km)
Ceiling: at least 12,000 feet AGL
Clouds: few clouds at 2000 feet AGL
Weather: no significant weather observed at this time

Forecast for: GCLP (LAS PALMAS/GANDO, ES)
Text: TAF GCLP 192000Z 1921/2021 36021KT 9999 FEW020 TX27/2014Z TN22/2003Z
Forecast period: 2100 UTC 19 August 2019 to 2100 UTC 20 August 2019
Forecast type: FROM: standard forecast or significant change
Winds: from the N (360 degrees) at 24 MPH (21 knots; 10.8 m/s)
Visibility: 6 or more miles 10+ km)
Ceiling: at least 12,000 feet AGL
Clouds: few clouds at 2000 feet AGL
Weather: no significant weather forecast for this period

 FLUGHAFENKARTE

 RUNWAY INFORMATION
Runway 03L Runway length 10171 ft Runway width 148 ft
Runway elevation 78 ft Runway displaced threshold 0 ft Runway heading 22
Runway 21R Runway length 10171 ft Runway width 148 ft
Runway elevation 33 ft Runway displaced threshold 0 ft Runway heading 202
Runway 03R Runway length 10171 ft Runway width 148 ft
Runway elevation 69 ft Runway displaced threshold 0 ft Runway heading 22
Runway 21L Runway length 10171 ft Runway width 148 ft
Runway elevation 27 ft Runway displaced threshold 0 ft Runway heading 202

 AIRPORT FREQUENCIES
Type APP Name APP Frequency 120.9 MHZ
Type ATIS Name ATIS Frequency 118.6 MHZ
Type GND Name GND Frequency 121.7 MHZ
Type TWR Name TWR Frequency 118.3 MHZ

 AIRPORT NEAR NAVIGATION AIDS
Type VOR-DME Name Gran Canaria Frequency 112900 KHZ
Type VOR-DME Name Gran Canaria Frequency 115000 KHZ
Type TACAN Name Gran Canaria Frequency 115600 KHZ
Type NDB Name Gran Canaria Frequency 365 KHZ



Powered by Virtual Airlines Manager [v2.6.2]